Time;durP1;ratioP1;P1;durP2;ratioP2;P2;SDS_P1;SDS_P2;PMS_P1;PMS_P2;Temp;Humidity;BMP_temperature;BMP_pressure;BME280_temperature;BME280_humidity;BME280_pressure;Samples;Min_cycle;Max_cycle;Signal;HPM_P1;HPM_P2
2022/05/27 00:02:11;;;;;;;2.27;1.80;;;16.80;99.90;;;;;;5047764;28;20480;-72
2022/05/27 00:04:38;;;;;;;4.23;1.80;;;16.90;99.90;;;;;;5051891;28;20830;-72
2022/05/27 00:07:05;;;;;;;1.47;1.17;;;17.00;99.90;;;;;;5051862;28;20468;-72
2022/05/27 00:09:32;;;;;;;1.80;1.60;;;16.90;99.90;;;;;;5048192;28;20491;-70
2022/05/27 00:11:58;;;;;;;2.00;1.43;;;16.80;99.90;;;;;;5046843;28;20518;-72
2022/05/27 00:14:25;;;;;;;1.40;1.00;;;16.70;99.90;;;;;;5046254;28;20981;-71
2022/05/27 00:16:51;;;;;;;4.63;2.00;;;16.80;99.90;;;;;;5043056;28;20478;-71
2022/05/27 00:19:19;;;;;;;2.30;1.77;;;16.80;99.90;;;;;;5046012;28;20936;-71
2022/05/27 00:21:46;;;;;;;2.17;1.50;;;16.80;99.90;;;;;;5047226;28;20914;-71
2022/05/27 00:24:13;;;;;;;3.77;1.70;;;16.80;99.90;;;;;;5046159;28;20494;-70
2022/05/27 00:26:40;;;;;;;2.47;1.70;;;16.70;99.90;;;;;;5048882;28;20516;-71
2022/05/27 00:29:07;;;;;;;1.30;1.20;;;16.50;99.90;;;;;;5043811;28;20485;-71
2022/05/27 00:31:33;;;;;;;2.93;2.43;;;16.50;99.90;;;;;;5051235;28;20553;-71
2022/05/27 00:34:00;;;;;;;2.57;2.20;;;16.20;99.90;;;;;;5043298;28;20469;-70
2022/05/27 00:36:28;;;;;;;2.40;2.17;;;16.30;99.90;;;;;;5047919;28;20527;-70
2022/05/27 00:38:55;;;;;;;2.47;1.93;;;16.20;99.90;;;;;;5042990;28;21039;-71
2022/05/27 00:41:22;;;;;;;2.13;1.90;;;16.10;99.90;;;;;;5042872;28;21076;-71
2022/05/27 00:43:48;;;;;;;2.20;2.00;;;16.40;99.90;;;;;;5045457;28;20463;-71
2022/05/27 00:46:18;;;;;;;4.47;2.60;;;16.30;99.90;;;;;;5043803;28;20469;-71
2022/05/27 00:48:49;;;;;;;3.40;2.20;;;16.10;99.90;;;;;;5043476;28;20491;-71
2022/05/27 00:51:19;;;;;;;2.80;1.93;;;16.00;99.90;;;;;;5048954;28;20486;-71
2022/05/27 00:53:55;;;;;;;3.30;2.13;;;15.80;99.90;;;;;;5049626;28;21187;-71
2022/05/27 00:56:24;;;;;;;2.00;1.20;;;15.80;99.90;;;;;;5045488;28;20534;-70
2022/05/27 00:58:55;;;;;;;4.80;2.80;;;15.80;99.90;;;;;;5046781;28;20822;-70
2022/05/27 01:01:23;;;;;;;4.00;1.93;;;15.70;99.90;;;;;;5042430;28;20477;-71
2022/05/27 01:03:52;;;;;;;5.03;2.47;;;15.70;99.90;;;;;;5048329;28;20507;-71
2022/05/27 01:06:19;;;;;;;3.87;2.70;;;15.70;99.90;;;;;;5044906;28;21044;-71
2022/05/27 01:08:47;;;;;;;2.60;2.20;;;15.80;99.90;;;;;;5045061;28;20477;-70
2022/05/27 01:11:25;;;;;;;4.17;2.50;;;15.80;99.90;;;;;;5044701;28;20481;-70
2022/05/27 01:14:08;;;;;;;2.87;2.40;;;15.90;99.90;;;;;;5051046;28;20475;-71
2022/05/27 01:16:44;;;;;;;3.63;2.23;;;15.80;99.90;;;;;;5049754;28;20962;-70
2022/05/27 01:22:44;;;;;;;4.00;2.60;;;15.80;99.90;;;;;;5049651;28;20445;-70
2022/05/27 01:25:51;;;;;;;4.10;2.90;;;15.80;99.90;;;;;;5048964;28;20839;-71
2022/05/27 01:28:35;;;;;;;3.87;2.20;;;15.70;99.90;;;;;;5048500;28;20981;-70
2022/05/27 01:31:11;;;;;;;3.13;2.57;;;15.50;99.90;;;;;;5041288;28;20987;-71
2022/05/27 01:33:42;;;;;;;2.93;2.37;;;15.40;99.90;;;;;;5043798;28;20464;-71
2022/05/27 01:36:23;;;;;;;3.70;2.57;;;15.40;99.90;;;;;;5049737;28;20629;-71
2022/05/27 01:38:57;;;;;;;3.13;2.67;;;15.40;99.90;;;;;;5052980;28;21037;-72
2022/05/27 01:41:29;;;;;;;5.67;3.00;;;15.40;99.90;;;;;;5049669;28;20495;-71
2022/05/27 01:44:00;;;;;;;3.03;2.03;;;15.50;99.90;;;;;;5052884;28;20989;-71
2022/05/27 01:46:34;;;;;;;10.10;2.93;;;15.60;99.90;;;;;;5042950;28;20486;-71
2022/05/27 01:49:06;;;;;;;3.87;3.20;;;15.70;99.90;;;;;;5049365;28;20536;-70
2022/05/27 01:51:37;;;;;;;6.83;3.10;;;15.60;99.90;;;;;;5051743;28;20486;-70
2022/05/27 01:54:09;;;;;;;5.77;3.77;;;15.50;99.90;;;;;;5050540;28;20466;-70
2022/05/27 01:56:40;;;;;;;6.70;2.87;;;15.40;99.90;;;;;;5051480;28;20915;-70
2022/05/27 01:59:12;;;;;;;5.50;3.50;;;15.30;99.90;;;;;;5040819;28;20519;-71
2022/05/27 02:01:45;;;;;;;2.90;2.30;;;15.20;99.90;;;;;;5048226;28;20516;-71
2022/05/27 02:04:18;;;;;;;3.00;2.30;;;15.20;99.90;;;;;;5052081;28;21019;-71
2022/05/27 02:06:48;;;;;;;4.47;2.67;;;15.30;99.90;;;;;;5051014;28;20470;-71
2022/05/27 02:09:19;;;;;;;3.33;2.70;;;15.40;99.90;;;;;;5049465;28;20481;-71
2022/05/27 02:11:50;;;;;;;4.80;3.00;;;15.30;99.90;;;;;;5054832;28;20509;-71
2022/05/27 02:14:23;;;;;;;9.30;3.43;;;15.30;99.90;;;;;;5051379;28;20458;-71
2022/05/27 02:16:56;;;;;;;5.33;2.93;;;15.40;99.90;;;;;;5052785;28;20463;-71
2022/05/27 02:19:27;;;;;;;3.80;2.80;;;15.40;99.90;;;;;;5046940;28;20512;-71
2022/05/27 02:21:57;;;;;;;3.63;3.00;;;15.40;99.90;;;;;;5051687;28;20508;-71
2022/05/27 02:24:34;;;;;;;4.67;3.33;;;15.40;99.90;;;;;;5054851;28;20465;-70
2022/05/27 02:27:06;;;;;;;7.03;3.47;;;15.30;99.90;;;;;;5054165;28;20995;-70
2022/05/27 02:29:34;;;;;;;4.20;3.27;;;15.20;99.90;;;;;;5051847;28;21050;-70
2022/05/27 02:32:07;;;;;;;3.93;2.80;;;15.10;99.90;;;;;;5049344;28;20462;-70
2022/05/27 02:37:27;;;;;;;3.70;2.57;;;15.10;99.90;;;;;;5048402;28;20450;-70
2022/05/27 02:39:55;;;;;;;2.90;2.60;;;14.90;99.90;;;;;;5046956;28;20481;-70
2022/05/27 02:42:32;;;;;;;4.40;2.90;;;15.10;99.90;;;;;;5051017;28;20459;-70
2022/05/27 02:45:09;;;;;;;5.30;3.53;;;15.20;99.90;;;;;;5047850;28;20515;-70
2022/05/27 02:47:49;;;;;;;8.03;3.23;;;15.20;99.90;;;;;;5051089;28;20526;-70
2022/05/27 02:50:28;;;;;;;4.67;3.30;;;15.10;99.90;;;;;;5051474;28;20492;-70
2022/05/27 02:53:04;;;;;;;5.60;3.77;;;15.00;99.90;;;;;;5049172;28;20453;-70
2022/05/27 02:55:40;;;;;;;3.83;3.40;;;15.00;99.90;;;;;;5046792;28;20548;-70
2022/05/27 02:58:07;;;;;;;7.33;3.10;;;14.90;99.90;;;;;;5047271;28;20469;-70
2022/05/27 03:00:36;;;;;;;5.00;3.80;;;14.90;99.90;;;;;;5047095;28;20487;-70
2022/05/27 03:03:04;;;;;;;3.83;2.27;;;14.90;99.90;;;;;;5057030;28;20457;-70
2022/05/27 03:05:37;;;;;;;3.23;2.57;;;14.90;99.90;;;;;;5051309;28;21007;-71
2022/05/27 03:08:16;;;;;;;4.10;3.70;;;14.80;99.90;;;;;;5041429;28;20466;-71
2022/05/27 03:10:53;;;;;;;6.33;3.67;;;14.70;99.90;;;;;;5044045;28;21144;-70
2022/05/27 03:13:41;;;;;;;3.80;2.83;;;14.80;99.90;;;;;;5048883;28;20474;-71
2022/05/27 03:16:19;;;;;;;7.30;3.27;;;14.90;99.90;;;;;;5042109;28;20559;-71
2022/05/27 03:19:05;;;;;;;7.27;4.27;;;14.90;99.90;;;;;;5049075;28;20969;-70
2022/05/27 03:21:47;;;;;;;5.20;4.20;;;14.90;99.90;;;;;;5049928;28;20827;-70
2022/05/27 03:24:21;;;;;;;5.40;4.17;;;15.00;99.90;;;;;;5050619;28;20515;-70
2022/05/27 03:26:59;;;;;;;3.13;2.80;;;15.00;99.90;;;;;;5048869;28;20482;-70
2022/05/27 03:29:32;;;;;;;12.80;4.57;;;14.90;99.90;;;;;;5048842;28;21000;-70
2022/05/27 03:32:05;;;;;;;5.53;2.53;;;14.80;99.90;;;;;;5047250;28;21258;-70
2022/05/27 03:34:38;;;;;;;3.77;2.33;;;14.60;99.90;;;;;;5043095;28;20487;-69
2022/05/27 03:37:11;;;;;;;8.40;2.80;;;14.60;99.90;;;;;;5047742;28;20467;-68
2022/05/27 03:39:44;;;;;;;1.50;1.40;;;14.40;99.90;;;;;;5043471;28;20548;-68
2022/05/27 03:42:13;;;;;;;2.73;2.00;;;14.20;99.90;;;;;;5036641;28;20462;-68
2022/05/27 03:44:48;;;;;;;2.17;1.97;;;14.20;99.90;;;;;;5044794;28;20468;-68
2022/05/27 03:47:15;;;;;;;2.67;1.80;;;14.20;99.90;;;;;;5049141;28;20692;-68
2022/05/27 03:49:43;;;;;;;1.60;1.40;;;14.40;99.90;;;;;;5046602;28;20512;-68
2022/05/27 03:52:15;;;;;;;2.50;2.30;;;14.40;99.90;;;;;;5036841;28;21052;-68
2022/05/27 03:54:41;;;;;;;2.63;2.37;;;14.50;99.90;;;;;;5044619;28;20477;-69
2022/05/27 03:57:08;;;;;;;2.63;1.63;;;14.60;99.90;;;;;;5045708;28;20805;-69
2022/05/27 03:59:35;;;;;;;5.70;2.30;;;14.60;99.90;;;;;;5041884;28;20867;-68
2022/05/27 04:02:01;;;;;;;2.97;2.40;;;14.70;99.90;;;;;;5047582;28;20974;-69
2022/05/27 04:04:29;;;;;;;7.57;3.33;;;14.70;99.90;;;;;;5035954;28;20469;-68
2022/05/27 04:06:57;;;;;;;3.27;2.97;;;14.80;99.90;;;;;;5047094;28;20462;-67
2022/05/27 04:09:26;;;;;;;5.30;3.67;;;14.80;99.90;;;;;;5044730;28;20478;-69
2022/05/27 04:11:53;;;;;;;2.50;2.30;;;14.90;99.90;;;;;;5044531;28;20478;-70
2022/05/27 04:14:20;;;;;;;3.13;2.07;;;14.90;99.90;;;;;;5043614;28;20460;-70
2022/05/27 04:16:48;;;;;;;5.70;3.30;;;15.00;99.90;;;;;;5048780;28;20518;-70
2022/05/27 04:19:15;;;;;;;3.03;2.03;;;14.90;99.90;;;;;;5047957;28;20459;-70
2022/05/27 04:21:42;;;;;;;2.73;2.27;;;14.90;99.90;;;;;;5036437;22;27852;-73
2022/05/27 04:24:10;;;;;;;2.33;1.80;;;14.80;99.90;;;;;;5033742;28;20464;-72
2022/05/27 04:26:37;;;;;;;3.00;2.80;;;14.80;99.90;;;;;;5032331;28;20521;-73
2022/05/27 04:29:07;;;;;;;6.23;2.30;;;14.90;99.90;;;;;;5031161;28;20457;-72
2022/05/27 04:31:34;;;;;;;3.83;2.13;;;14.80;99.90;;;;;;5035456;28;20506;-73
2022/05/27 04:34:03;;;;;;;3.53;2.00;;;14.70;99.90;;;;;;5035774;28;20463;-72
2022/05/27 04:36:30;;;;;;;2.90;2.07;;;14.80;99.90;;;;;;5025656;28;20476;-72
2022/05/27 04:38:58;;;;;;;2.10;1.80;;;14.80;99.90;;;;;;5029032;28;20456;-72
2022/05/27 04:41:26;;;;;;;4.03;2.80;;;14.90;99.90;;;;;;5020278;28;20562;-72
2022/05/27 04:43:52;;;;;;;4.33;1.97;;;15.00;99.90;;;;;;5013404;28;20930;-73
2022/05/27 04:46:19;;;;;;;8.90;2.40;;;15.00;99.90;;;;;;5014840;28;22395;-72
2022/05/27 04:48:46;;;;;;;2.63;2.23;;;14.90;99.90;;;;;;5023369;28;20466;-72
2022/05/27 04:51:12;;;;;;;6.20;2.83;;;15.00;99.90;;;;;;5022744;28;20492;-72
2022/05/27 04:53:41;;;;;;;5.43;2.90;;;15.10;99.90;;;;;;5027688;28;20905;-72
2022/05/27 04:56:09;;;;;;;2.67;2.27;;;15.10;99.90;;;;;;5030418;28;20437;-72
2022/05/27 04:58:40;;;;;;;3.10;2.50;;;15.10;99.90;;;;;;5030294;28;20726;-73
2022/05/27 05:01:07;;;;;;;4.27;3.33;;;15.10;99.90;;;;;;5025703;28;20483;-72
2022/05/27 05:03:34;;;;;;;3.10;2.80;;;15.20;99.90;;;;;;5022878;28;20936;-72
2022/05/27 05:06:01;;;;;;;2.70;2.20;;;15.20;99.90;;;;;;5041506;28;20959;-74
2022/05/27 05:08:33;;;;;;;4.30;3.20;;;15.20;99.90;;;;;;5029496;28;20466;-72
2022/05/27 05:11:01;;;;;;;4.70;3.40;;;15.20;99.90;;;;;;5033524;28;20528;-72
2022/05/27 05:13:34;;;;;;;3.80;2.30;;;15.20;99.90;;;;;;5032487;28;20474;-73
2022/05/27 05:16:04;;;;;;;3.80;2.70;;;15.30;99.90;;;;;;5030868;28;20455;-73
2022/05/27 05:18:30;;;;;;;6.50;2.70;;;15.40;99.90;;;;;;5032553;28;20496;-73
2022/05/27 05:20:57;;;;;;;2.87;2.53;;;15.50;99.90;;;;;;5034592;28;20498;-72
2022/05/27 05:23:24;;;;;;;4.37;3.10;;;15.60;99.90;;;;;;5037775;28;20547;-73
2022/05/27 05:25:50;;;;;;;2.63;2.10;;;15.60;99.90;;;;;;5038186;28;20459;-72
2022/05/27 05:28:17;;;;;;;5.63;3.23;;;15.60;99.90;;;;;;5029055;28;20465;-73
2022/05/27 05:30:44;;;;;;;3.53;2.87;;;15.70;99.90;;;;;;5026855;28;20481;-73
2022/05/27 05:33:12;;;;;;;9.50;3.43;;;15.70;99.90;;;;;;5031824;28;20536;-73
2022/05/27 05:35:39;;;;;;;4.10;2.83;;;15.80;99.90;;;;;;5032699;28;20519;-73
2022/05/27 05:38:06;;;;;;;4.60;2.57;;;15.90;99.90;;;;;;5033981;28;21061;-74
2022/05/27 05:40:33;;;;;;;4.60;3.27;;;15.90;99.90;;;;;;5027668;28;20454;-72
2022/05/27 05:43:01;;;;;;;3.50;2.73;;;15.80;99.90;;;;;;5017834;28;20513;-73
2022/05/27 05:45:28;;;;;;;3.90;2.73;;;15.90;99.90;;;;;;5046408;28;20431;-74
2022/05/27 05:47:55;;;;;;;4.93;2.47;;;16.00;99.90;;;;;;5038524;28;20964;-73
2022/05/27 05:50:23;;;;;;;3.00;2.20;;;16.10;99.90;;;;;;5036318;28;20481;-73
2022/05/27 05:52:50;;;;;;;5.17;3.30;;;16.10;99.90;;;;;;5039625;28;20467;-73
2022/05/27 05:55:18;;;;;;;5.00;2.97;;;16.00;99.90;;;;;;5039777;28;20488;-73
2022/05/27 05:57:48;;;;;;;7.00;4.40;;;15.90;99.90;;;;;;5040800;28;20459;-73
2022/05/27 06:00:20;;;;;;;5.90;2.80;;;15.80;99.90;;;;;;5039516;28;20454;-73
2022/05/27 06:02:47;;;;;;;3.90;3.23;;;15.60;99.90;;;;;;5043097;28;20462;-73
2022/05/27 06:05:14;;;;;;;6.87;3.33;;;15.70;99.90;;;;;;5042196;28;20468;-73
2022/05/27 06:07:43;;;;;;;5.73;3.13;;;15.90;99.90;;;;;;5040167;28;20460;-73
2022/05/27 06:10:12;;;;;;;7.80;3.30;;;16.40;99.90;;;;;;5042144;28;20989;-73
2022/05/27 06:12:39;;;;;;;3.13;2.83;;;16.70;99.90;;;;;;5043082;28;20483;-73
2022/05/27 06:15:10;;;;;;;5.63;2.50;;;16.80;99.90;;;;;;5039932;28;20473;-73
2022/05/27 06:17:37;;;;;;;2.73;2.50;;;16.70;99.90;;;;;;5042185;28;20462;-73
2022/05/27 06:20:05;;;;;;;7.07;3.20;;;16.80;99.90;;;;;;5045800;28;20467;-74
2022/05/27 06:22:32;;;;;;;4.03;2.80;;;17.20;99.90;;;;;;5044516;28;20520;-73
2022/05/27 06:25:01;;;;;;;13.30;3.20;;;17.20;99.90;;;;;;5047540;28;20445;-74
2022/05/27 06:27:28;;;;;;;4.00;2.90;;;17.20;99.90;;;;;;5043722;28;20462;-73
2022/05/27 06:35:23;;;;;;;4.83;3.10;;;17.80;99.90;;;;;;5035406;28;20591;-73
2022/05/27 06:37:50;;;;;;;4.13;3.40;;;17.50;99.90;;;;;;5040366;28;20529;-72
2022/05/27 06:40:18;;;;;;;4.97;3.93;;;17.10;99.90;;;;;;5036888;28;20486;-72
2022/05/27 06:42:45;;;;;;;4.37;2.80;;;17.30;99.90;;;;;;5038574;28;20464;-73
2022/05/27 06:45:14;;;;;;;3.73;2.30;;;17.50;99.90;;;;;;5041747;28;20836;-72
2022/05/27 06:47:41;;;;;;;2.90;2.33;;;17.90;99.90;;;;;;5040103;28;20540;-72
2022/05/27 06:50:09;;;;;;;3.97;2.53;;;18.40;99.90;;;;;;5034778;28;20476;-73
2022/05/27 06:52:37;;;;;;;4.00;2.50;;;18.40;99.90;;;;;;5041620;28;20534;-73
2022/05/27 06:55:04;;;;;;;3.00;2.67;;;18.50;99.90;;;;;;5042300;28;20489;-73
2022/05/27 06:57:33;;;;;;;6.40;3.20;;;17.90;99.90;;;;;;5043489;28;20465;-72
2022/05/27 07:00:00;;;;;;;5.53;2.83;;;17.30;99.90;;;;;;5034356;28;20501;-72
2022/05/27 07:02:27;;;;;;;5.57;2.80;;;17.30;99.90;;;;;;5037425;28;20493;-72
2022/05/27 07:04:54;;;;;;;4.10;2.77;;;17.60;99.90;;;;;;5037808;28;20470;-72
2022/05/27 07:07:22;;;;;;;2.97;2.67;;;18.00;99.90;;;;;;5039132;28;20465;-72
2022/05/27 07:09:49;;;;;;;6.53;2.40;;;18.10;99.90;;;;;;5043616;28;20467;-72
2022/05/27 07:12:16;;;;;;;6.33;2.97;;;18.40;99.90;;;;;;5042551;28;20488;-73
2022/05/27 07:14:44;;;;;;;3.40;2.40;;;18.50;99.90;;;;;;5036115;28;20542;-72
2022/05/27 07:17:10;;;;;;;2.93;2.17;;;18.30;99.90;;;;;;5035681;28;20462;-73
2022/05/27 07:19:39;;;;;;;8.20;3.03;;;18.40;99.90;;;;;;5042461;28;21052;-72
2022/05/27 07:22:06;;;;;;;3.87;3.33;;;18.30;99.90;;;;;;5041004;28;20525;-72
2022/05/27 07:24:33;;;;;;;6.27;2.77;;;18.40;99.90;;;;;;5031957;28;20497;-73
2022/05/27 07:27:00;;;;;;;4.43;2.03;;;18.30;99.90;;;;;;5036190;28;20803;-72
2022/05/27 07:29:27;;;;;;;2.90;2.03;;;18.10;99.90;;;;;;5033326;28;20458;-71
2022/05/27 07:31:57;;;;;;;6.40;2.27;;;18.10;99.90;;;;;;5034646;28;20976;-71
2022/05/27 07:34:23;;;;;;;3.17;2.17;;;18.00;99.90;;;;;;5032456;28;20459;-71
2022/05/27 07:36:50;;;;;;;6.70;2.40;;;18.20;99.90;;;;;;5040731;28;20532;-71
2022/05/27 07:42:05;;;;;;;3.90;2.53;;;17.80;99.90;;;;;;5014734;28;20496;-74
2022/05/27 07:44:32;;;;;;;5.37;1.80;;;18.10;99.90;;;;;;5033686;28;20960;-72
2022/05/27 07:47:00;;;;;;;5.43;1.83;;;18.30;99.90;;;;;;5034247;28;20506;-72
2022/05/27 07:49:26;;;;;;;3.27;2.00;;;18.60;99.90;;;;;;5039201;28;20463;-72
2022/05/27 07:51:53;;;;;;;4.90;2.00;;;18.80;99.90;;;;;;5033483;28;20594;-72
2022/05/27 07:54:20;;;;;;;4.00;1.70;;;18.40;99.90;;;;;;5037718;28;20469;-72
2022/05/27 07:56:46;;;;;;;3.87;2.27;;;18.50;99.90;;;;;;5035304;28;20976;-72
2022/05/27 07:59:13;;;;;;;3.53;2.13;;;18.70;99.90;;;;;;5031524;28;20840;-72
2022/05/27 08:01:40;;;;;;;3.93;2.10;;;18.40;99.90;;;;;;5032452;28;20481;-72
2022/05/27 08:04:09;;;;;;;3.20;2.23;;;18.30;99.90;;;;;;5038698;28;20463;-72
2022/05/27 08:06:36;;;;;;;4.10;1.97;;;18.70;99.90;;;;;;5038128;28;20972;-72
2022/05/27 08:09:03;;;;;;;9.80;3.00;;;18.80;99.90;;;;;;5030202;28;21045;-72
2022/05/27 08:11:30;;;;;;;5.40;2.53;;;18.20;99.90;;;;;;5035984;28;20910;-72
2022/05/27 08:13:56;;;;;;;2.60;2.27;;;18.00;99.90;;;;;;5031609;28;20786;-72
2022/05/27 08:16:23;;;;;;;3.00;2.53;;;18.00;99.90;;;;;;5034596;28;20465;-72
2022/05/27 08:18:50;;;;;;;4.10;1.90;;;17.90;99.90;;;;;;5034938;28;20465;-72
2022/05/27 08:21:18;;;;;;;2.47;2.27;;;17.90;99.90;;;;;;5033549;28;20487;-71
2022/05/27 08:23:45;;;;;;;4.20;1.80;;;17.70;99.90;;;;;;5036145;28;20465;-72
2022/05/27 08:26:12;;;;;;;2.90;2.30;;;17.70;99.90;;;;;;5037817;28;20463;-72
2022/05/27 08:28:39;;;;;;;4.00;2.83;;;17.50;99.90;;;;;;5031221;28;21009;-72
2022/05/27 08:31:05;;;;;;;4.43;2.90;;;17.50;99.90;;;;;;5033375;28;20488;-72
2022/05/27 08:39:06;;;;;;;3.63;2.37;;;17.40;99.90;;;;;;4998195;28;20886;-72
2022/05/27 08:41:51;;;;;;;5.10;3.37;;;18.00;99.90;;;;;;5036050;28;21487;-72
2022/05/27 08:44:28;;;;;;;4.90;2.60;;;18.80;99.90;;;;;;5033537;28;20471;-72
2022/05/27 08:47:03;;;;;;;5.20;2.37;;;20.10;99.90;;;;;;5036306;28;20472;-72
2022/05/27 08:49:34;;;;;;;4.77;2.00;;;21.20;99.90;;;;;;5037705;28;20490;-73
2022/05/27 08:52:06;;;;;;;2.50;2.03;;;22.00;99.90;;;;;;5030723;28;20488;-71
2022/05/27 08:54:39;;;;;;;10.90;2.60;;;22.30;99.90;;;;;;5033430;28;20460;-72
2022/05/27 08:59:58;;;;;;;7.73;2.50;;;22.40;99.90;;;;;;5031914;28;20485;-73
2022/05/27 09:02:31;;;;;;;2.00;1.80;;;22.30;99.90;;;;;;5033526;28;20845;-72
2022/05/27 09:05:06;;;;;;;4.33;2.20;;;22.30;99.90;;;;;;5033375;28;20622;-73
2022/05/27 09:07:41;;;;;;;5.50;2.17;;;22.40;99.90;;;;;;5036438;28;20461;-72
2022/05/27 09:10:13;;;;;;;5.13;2.60;;;22.90;99.90;;;;;;5036730;28;20629;-72
2022/05/27 09:12:46;;;;;;;3.20;2.20;;;22.70;99.90;;;;;;5034385;28;22103;-72
2022/05/27 09:15:26;;;;;;;2.17;1.70;;;22.60;99.90;;;;;;5034670;28;20547;-73
2022/05/27 09:18:05;;;;;;;2.67;1.90;;;22.90;99.90;;;;;;5035980;28;20643;-72
2022/05/27 09:20:42;;;;;;;2.20;1.70;;;22.90;99.90;;;;;;5032243;28;20468;-73
2022/05/27 09:23:21;;;;;;;9.83;1.73;;;23.30;99.90;;;;;;5035119;28;20497;-72
2022/05/27 09:26:00;;;;;;;2.57;1.60;;;23.50;99.90;;;;;;5036605;28;20462;-73
2022/05/27 09:28:38;;;;;;;8.93;1.67;;;22.20;99.90;;;;;;5037216;28;20470;-72
2022/05/27 09:31:08;;;;;;;5.60;1.67;;;22.30;99.90;;;;;;5016668;28;21232;-72
2022/05/27 09:33:36;;;;;;;4.73;2.03;;;22.40;99.90;;;;;;5033005;28;20465;-72
2022/05/27 09:36:09;;;;;;;2.70;1.97;;;23.00;99.90;;;;;;5036677;28;20470;-72
2022/05/27 09:38:38;;;;;;;3.93;2.10;;;23.60;99.90;;;;;;5029564;28;20579;-74
2022/05/27 09:41:23;;;;;;;4.23;1.77;;;23.30;99.90;;;;;;5027576;28;20475;-72
2022/05/27 09:43:56;;;;;;;3.10;2.00;;;21.90;99.90;;;;;;5035092;28;20985;-72
2022/05/27 09:46:27;;;;;;;5.33;2.17;;;21.30;99.90;;;;;;5036080;28;20462;-72
2022/05/27 09:48:56;;;;;;;6.43;2.63;;;21.30;99.90;;;;;;5034658;28;20458;-73
2022/05/27 09:51:25;;;;;;;2.23;1.80;;;21.20;99.90;;;;;;5037591;28;20477;-72
2022/05/27 09:53:55;;;;;;;5.80;3.20;;;20.50;99.90;;;;;;5037575;28;20463;-73
2022/05/27 09:56:37;;;;;;;3.07;2.33;;;20.30;99.90;;;;;;5040386;28;21053;-72
2022/05/27 09:59:20;;;;;;;2.13;1.90;;;20.00;99.90;;;;;;5040969;28;20467;-72
2022/05/27 10:01:46;;;;;;;4.50;2.23;;;20.00;99.90;;;;;;5038816;28;20877;-73
2022/05/27 10:04:15;;;;;;;2.90;1.60;;;21.20;99.90;;;;;;5042494;28;20562;-72
2022/05/27 10:06:43;;;;;;;5.83;2.10;;;22.40;99.90;;;;;;5040675;28;20466;-74
2022/05/27 10:09:24;;;;;;;2.70;1.60;;;23.00;99.90;;;;;;5038964;28;20516;-73
2022/05/27 10:11:54;;;;;;;3.60;2.00;;;24.10;98.60;;;;;;5036869;28;20826;-74
2022/05/27 10:14:24;;;;;;;1.70;1.40;;;24.30;97.20;;;;;;5034883;28;21077;-72
2022/05/27 10:17:08;;;;;;;4.03;2.20;;;24.20;95.90;;;;;;5038351;28;20836;-71
2022/05/27 10:19:35;;;;;;;6.33;1.80;;;24.50;95.50;;;;;;5042400;28;20473;-72
2022/05/27 10:22:04;;;;;;;4.50;2.50;;;23.80;93.90;;;;;;5037566;28;22123;-72
2022/05/27 10:24:34;;;;;;;2.53;2.00;;;24.00;94.70;;;;;;5039188;22;20756;-70
2022/05/27 10:27:09;;;;;;;3.67;2.13;;;23.80;92.50;;;;;;5016063;28;21029;-70
2022/05/27 10:29:49;;;;;;;6.87;2.00;;;23.80;93.30;;;;;;5013528;28;20486;-71
2022/05/27 10:32:28;;;;;;;2.60;1.70;;;23.80;91.80;;;;;;5017958;28;20556;-71
2022/05/27 10:34:55;;;;;;;3.40;1.83;;;24.10;93.30;;;;;;5016329;28;21017;-71
2022/05/27 10:37:44;;;;;;;4.20;1.63;;;24.60;91.50;;;;;;5020855;28;20521;-71
2022/05/27 10:40:22;;;;;;;2.70;1.40;;;23.90;93.50;;;;;;5018413;28;21130;-70
2022/05/27 10:42:58;;;;;;;6.50;2.37;;;24.00;90.70;;;;;;5017268;28;20825;-71
2022/05/27 10:45:32;;;;;;;2.33;1.50;;;23.90;93.10;;;;;;5020312;28;20987;-71
2022/05/27 10:48:33;;;;;;;2.50;2.10;;;24.70;94.10;;;;;;5015649;28;20461;-71
2022/05/27 10:51:09;;;;;;;6.70;2.30;;;25.00;90.80;;;;;;5015082;28;20533;-70
2022/05/27 10:54:12;;;;;;;5.47;2.43;;;24.50;91.10;;;;;;5013337;28;20463;-70
2022/05/27 11:02:04;;;;;;;4.13;2.00;;;24.20;87.00;;;;;;5017026;28;20827;-70
2022/05/27 11:02:53;;;;;;;4.20;1.70;;;22.50;91.90;;;;;;5008946;28;21280;-70
2022/05/27 11:05:32;;;;;;;2.53;1.40;;;22.00;91.20;;;;;;5020595;28;20528;-71
2022/05/27 11:08:12;;;;;;;4.17;1.80;;;21.80;92.70;;;;;;5015996;28;20476;-71
2022/05/27 11:10:49;;;;;;;4.90;2.33;;;22.10;92.70;;;;;;5016039;28;20468;-71
2022/05/27 11:16:31;;;;;;;4.07;2.70;;;22.10;93.30;;;;;;5023065;28;20546;-71
2022/05/27 11:19:20;;;;;;;6.10;1.77;;;22.00;93.50;;;;;;5013867;28;20453;-71
2022/05/27 11:22:08;;;;;;;1.77;1.43;;;21.90;92.40;;;;;;5019451;28;20835;-71
2022/05/27 11:24:59;;;;;;;2.57;1.70;;;23.00;92.00;;;;;;5018812;28;20545;-71
2022/05/27 11:27:39;;;;;;;5.83;1.67;;;23.80;87.70;;;;;;5018057;28;20569;-70
2022/05/27 11:30:18;;;;;;;3.40;1.90;;;24.00;84.20;;;;;;5011535;28;21040;-70
2022/05/27 11:32:59;;;;;;;7.00;2.47;;;23.90;86.50;;;;;;5017223;28;20549;-71
2022/05/27 11:35:37;;;;;;;3.07;1.53;;;24.10;86.80;;;;;;5009658;28;20482;-71
2022/05/27 11:38:22;;;;;;;3.40;2.30;;;24.90;83.00;;;;;;5019700;28;20471;-70
2022/05/27 11:40:58;;;;;;;15.13;3.80;;;24.40;81.00;;;;;;5018106;28;21002;-72
2022/05/27 11:43:47;;;;;;;3.33;1.70;;;23.20;84.20;;;;;;5016573;28;20451;-71
2022/05/27 11:46:34;;;;;;;5.23;1.53;;;22.20;84.20;;;;;;5018826;28;20459;-69
2022/05/27 11:49:15;;;;;;;4.00;1.50;;;21.50;86.60;;;;;;5020450;28;20458;-69
2022/05/27 11:51:50;;;;;;;2.77;1.67;;;22.40;86.70;;;;;;5013511;28;20491;-70
2022/05/27 11:54:58;;;;;;;3.10;1.90;;;22.70;87.70;;;;;;5012861;28;20586;-70
2022/05/27 11:57:38;;;;;;;2.23;1.30;;;21.80;87.30;;;;;;5013084;28;20463;-71
2022/05/27 12:00:08;;;;;;;3.00;1.57;;;21.90;88.90;;;;;;5013540;28;21033;-70
2022/05/27 12:02:42;;;;;;;6.07;1.53;;;22.50;87.00;;;;;;5009726;28;20669;-71
2022/05/27 12:05:15;;;;;;;6.97;2.27;;;23.40;84.50;;;;;;5015364;28;20502;-71
2022/05/27 12:07:49;;;;;;;2.10;1.57;;;24.40;80.60;;;;;;5022973;28;20500;-71
2022/05/27 12:10:24;;;;;;;2.60;1.30;;;24.90;78.00;;;;;;5016646;28;20475;-71
2022/05/27 12:12:56;;;;;;;3.27;1.90;;;24.80;76.00;;;;;;5016336;28;20985;-71
2022/05/27 12:15:25;;;;;;;7.20;2.20;;;24.80;74.20;;;;;;5013636;28;20582;-71
2022/05/27 12:17:55;;;;;;;5.13;1.80;;;24.70;74.80;;;;;;5014308;28;20463;-71
2022/05/27 12:20:26;;;;;;;4.10;1.80;;;25.00;77.10;;;;;;5014204;28;20953;-71
2022/05/27 12:22:54;;;;;;;6.03;1.53;;;25.30;77.10;;;;;;5023324;28;20545;-71
2022/05/27 12:25:26;;;;;;;3.10;1.77;;;24.20;74.70;;;;;;5019610;28;20870;-71
2022/05/27 12:27:53;;;;;;;6.23;2.30;;;24.30;79.10;;;;;;5017750;28;20466;-72
2022/05/27 12:30:31;;;;;;;5.83;2.00;;;24.40;78.90;;;;;;5006499;28;20852;-71
2022/05/27 12:32:59;;;;;;;9.53;2.07;;;24.80;76.80;;;;;;5017341;28;20517;-72
2022/05/27 12:35:44;;;;;;;2.50;1.43;;;25.10;75.40;;;;;;5018765;28;20480;-70
2022/05/27 12:38:13;;;;;;;1.63;1.20;;;25.60;73.70;;;;;;5014605;28;20461;-71
2022/05/27 12:40:44;;;;;;;2.97;1.93;;;25.00;71.00;;;;;;5015224;28;20470;-70
2022/05/27 12:43:21;;;;;;;5.47;2.50;;;24.50;74.80;;;;;;5021916;28;20520;-70
2022/05/27 12:45:50;;;;;;;1.87;1.13;;;23.90;75.80;;;;;;5018648;28;20532;-69
2022/05/27 12:48:29;;;;;;;2.10;1.57;;;23.90;78.00;;;;;;5013839;28;20459;-70
2022/05/27 12:51:00;;;;;;;3.23;2.27;;;24.00;73.60;;;;;;5015983;28;20471;-70
2022/05/27 12:53:42;;;;;;;7.13;1.90;;;24.20;73.60;;;;;;5017975;28;20905;-70
2022/05/27 13:02:49;;;;;;;7.30;2.60;;;24.10;72.20;;;;;;5016170;28;20441;-71
2022/05/27 13:05:18;;;;;;;5.07;1.60;;;24.30;72.40;;;;;;5015207;28;20507;-72
2022/05/27 13:07:49;;;;;;;11.83;3.47;;;23.30;71.60;;;;;;5014461;28;20545;-71
2022/05/27 13:10:48;;;;;;;4.07;1.97;;;22.30;72.00;;;;;;5022099;28;20519;-69
2022/05/27 13:13:20;;;;;;;4.40;3.20;;;21.80;73.40;;;;;;4944796;28;20627;-70
2022/05/27 13:15:54;;;;;;;2.00;1.80;;;22.70;71.60;;;;;;4996634;28;20494;-70
2022/05/27 13:18:36;;;;;;;5.87;2.40;;;22.90;70.90;;;;;;5014349;28;20486;-70
2022/05/27 13:21:11;;;;;;;7.30;2.70;;;23.60;72.80;;;;;;5015969;28;20834;-71
2022/05/27 13:23:59;;;;;;;8.00;2.03;;;23.60;70.50;;;;;;5015658;28;20900;-69
2022/05/27 13:26:38;;;;;;;2.97;1.70;;;23.70;69.00;;;;;;5021824;28;20558;-69
2022/05/27 13:29:17;;;;;;;4.93;1.57;;;23.50;69.00;;;;;;5013147;28;20551;-70
2022/05/27 13:31:45;;;;;;;2.70;1.30;;;24.00;68.60;;;;;;5021114;28;20475;-70
2022/05/27 13:34:18;;;;;;;4.13;1.73;;;24.50;66.20;;;;;;5023733;28;21073;-69
2022/05/27 13:36:53;;;;;;;7.20;2.57;;;23.70;65.70;;;;;;5027427;28;20458;-70
2022/05/27 13:39:25;;;;;;;7.10;2.00;;;22.10;67.80;;;;;;5019171;28;20903;-69
2022/05/27 13:41:53;;;;;;;3.93;1.50;;;21.20;68.90;;;;;;5018022;28;20570;-70
2022/05/27 13:44:23;;;;;;;4.27;1.60;;;20.80;71.20;;;;;;5021320;28;20483;-70
2022/05/27 13:46:52;;;;;;;5.00;1.30;;;21.40;73.30;;;;;;5024124;28;20462;-72